createdAt,value
2022-08-27T00:01:42.336Z,25.49
2022-08-27T00:04:19.769Z,25.49
2022-08-27T00:06:59.004Z,25.48
2022-08-27T00:09:39.702Z,25.48
2022-08-27T00:12:19.617Z,25.48
2022-08-27T00:15:02.845Z,25.37
2022-08-27T00:17:39.209Z,24.73
2022-08-27T00:20:26.238Z,24.08
2022-08-27T00:23:01.001Z,23.71
2022-08-27T00:25:49.196Z,24.00
2022-08-27T00:28:35.743Z,24.32
2022-08-27T00:31:35.794Z,24.50
2022-08-27T00:34:13.622Z,24.62
2022-08-27T00:36:54.804Z,24.71
2022-08-27T00:39:26.809Z,24.80
2022-08-27T00:42:01.082Z,24.85
2022-08-27T00:44:38.918Z,24.87
2022-08-27T00:47:37.876Z,24.89
2022-08-27T00:50:15.779Z,24.91
2022-08-27T00:52:57.330Z,24.93
2022-08-27T00:55:48.582Z,24.85
2022-08-27T01:05:07.794Z,23.10
2022-08-27T01:07:55.423Z,23.41
2022-08-27T01:10:32.807Z,23.82
2022-08-27T01:13:08.256Z,24.10
2022-08-27T01:16:03.482Z,24.29
2022-08-27T01:18:41.688Z,24.45
2022-08-27T01:21:48.450Z,24.42
2022-08-27T01:24:44.862Z,23.85
2022-08-27T01:27:18.950Z,23.28
2022-08-27T01:29:53.215Z,22.91
2022-08-27T01:32:33.270Z,22.75
2022-08-27T01:35:18.017Z,23.18
2022-08-27T01:37:52.430Z,23.61
2022-08-27T01:40:25.352Z,23.88
2022-08-27T01:43:17.794Z,24.11
2022-08-27T01:45:52.105Z,24.28
2022-08-27T01:49:04.608Z,24.42
2022-08-27T01:51:59.612Z,24.34
2022-08-27T01:54:51.675Z,23.65
2022-08-27T01:57:36.510Z,23.08
2022-08-27T02:00:19.226Z,22.80
2022-08-27T02:02:51.904Z,23.15
2022-08-27T02:05:44.907Z,23.56
2022-08-27T02:08:33.922Z,23.89
2022-08-27T02:11:21.861Z,24.08
2022-08-27T02:13:58.839Z,24.21
2022-08-27T02:16:41.304Z,24.29
2022-08-27T02:19:36.873Z,24.20
2022-08-27T02:22:09.096Z,23.60
2022-08-27T02:25:10.219Z,23.05
2022-08-27T02:27:46.954Z,22.76
2022-08-27T02:30:32.319Z,23.16
2022-08-27T02:33:23.545Z,23.55
2022-08-27T02:36:10.915Z,23.79
2022-08-27T02:39:06.310Z,23.96
2022-08-27T02:41:49.751Z,24.08
2022-08-27T02:44:45.942Z,24.19
2022-08-27T02:47:26.405Z,24.10
2022-08-27T02:50:17.725Z,23.46
2022-08-27T02:52:57.057Z,22.88
2022-08-27T02:55:37.929Z,22.58
2022-08-27T02:58:31.744Z,22.97
2022-08-27T03:01:14.426Z,23.33
2022-08-27T03:03:52.113Z,23.57
2022-08-27T03:06:47.628Z,23.71
2022-08-27T03:09:19.182Z,23.81
2022-08-27T03:11:54.218Z,23.88
2022-08-27T03:14:43.592Z,23.95
2022-08-27T03:17:57.185Z,24.00
2022-08-27T03:20:31.852Z,24.04
2022-08-27T03:23:11.165Z,24.07
2022-08-27T03:25:53.727Z,24.10
2022-08-27T03:28:37.751Z,24.13
2022-08-27T03:31:16.760Z,24.15
2022-08-27T03:33:49.143Z,24.14
2022-08-27T03:36:30.468Z,24.13
2022-08-27T03:39:11.296Z,24.13
2022-08-27T03:41:54.640Z,24.14
2022-08-27T03:44:35.918Z,24.14
2022-08-27T03:47:17.393Z,24.02
2022-08-27T03:49:55.194Z,23.37
2022-08-27T03:52:44.806Z,22.65
2022-08-27T03:55:28.918Z,22.31
2022-08-27T03:58:19.007Z,22.62
2022-08-27T04:01:02.539Z,22.99
2022-08-27T04:03:37.759Z,23.23
2022-08-27T04:07:01.044Z,23.40
2022-08-27T04:09:57.171Z,23.51
2022-08-27T04:12:33.803Z,23.61
2022-08-27T04:15:17.890Z,23.68
2022-08-27T04:17:54.050Z,23.73
2022-08-27T04:20:35.112Z,23.79
2022-08-27T04:23:10.510Z,23.84
2022-08-27T04:25:56.357Z,23.91
2022-08-27T04:28:57.709Z,23.99
2022-08-27T04:31:42.981Z,24.04
2022-08-27T04:34:14.784Z,24.09
2022-08-27T04:36:46.706Z,24.14
2022-08-27T04:39:21.739Z,24.09
2022-08-27T04:42:13.817Z,23.51
2022-08-27T04:45:07.036Z,22.87
2022-08-27T04:48:04.693Z,22.56
2022-08-27T04:50:44.713Z,22.92
2022-08-27T04:53:33.918Z,23.29
2022-08-27T04:56:05.574Z,23.52
2022-08-27T04:58:49.431Z,23.73
2022-08-27T05:01:29.932Z,23.90
2022-08-27T05:04:20.271Z,24.06
2022-08-27T05:07:15.179Z,24.24
2022-08-27T05:10:00.249Z,24.39
2022-08-27T05:12:40.601Z,24.52
2022-08-27T05:15:26.387Z,24.66
2022-08-27T05:18:54.357Z,24.80
2022-08-27T05:21:36.360Z,24.73
2022-08-27T05:24:34.234Z,24.16
2022-08-27T05:27:12.987Z,23.62
2022-08-27T05:30:04.782Z,23.43
2022-08-27T05:33:04.229Z,23.98
2022-08-27T05:35:59.805Z,24.41
2022-08-27T05:39:19.690Z,24.75
2022-08-27T05:42:20.530Z,25.03
2022-08-27T05:44:57.714Z,25.23
2022-08-27T05:47:50.852Z,25.27
2022-08-27T05:50:30.518Z,24.78
2022-08-27T05:53:01.865Z,24.35
2022-08-27T05:55:48.267Z,24.01
2022-08-27T05:58:42.041Z,23.78
2022-08-27T06:01:24.584Z,23.59
2022-08-27T06:04:02.385Z,23.62
2022-08-27T06:07:12.815Z,24.31
2022-08-27T06:10:00.996Z,24.94
2022-08-27T06:13:03.925Z,25.39
2022-08-27T06:16:30.388Z,25.53
2022-08-27T06:19:20.792Z,25.02
2022-08-27T06:22:01.189Z,24.68
2022-08-27T06:24:48.074Z,24.44
2022-08-27T06:27:26.582Z,24.28
2022-08-27T06:30:37.920Z,24.13
2022-08-27T06:33:12.556Z,24.21
2022-08-27T06:35:41.924Z,24.85
2022-08-27T06:38:10.893Z,25.44
2022-08-27T06:40:46.012Z,25.90
2022-08-27T06:43:14.880Z,26.11
2022-08-27T06:46:04.698Z,25.78
2022-08-27T06:48:47.296Z,25.42
2022-08-27T06:51:33.798Z,25.16
2022-08-27T06:54:15.959Z,25.00
2022-08-27T06:57:05.174Z,24.88
2022-08-27T06:59:34.267Z,24.83
2022-08-27T07:02:15.233Z,24.79
2022-08-27T07:04:50.888Z,24.76
2022-08-27T07:07:30.142Z,24.75
2022-08-27T07:10:09.749Z,24.74
2022-08-27T07:12:48.704Z,24.85
2022-08-27T07:15:23.314Z,25.55
2022-08-27T07:18:06.985Z,26.26
2022-08-27T07:20:55.952Z,26.68
2022-08-27T07:23:35.504Z,26.46
2022-08-27T07:42:15.467Z,25.84
2022-08-27T07:44:50.340Z,25.85
2022-08-27T07:47:24.361Z,25.87
2022-08-27T07:49:54.367Z,25.89
2022-08-27T07:52:34.831Z,25.89
2022-08-27T07:55:07.713Z,25.91
2022-08-27T07:57:37.026Z,25.94
2022-08-27T08:00:16.580Z,26.12
2022-08-27T08:02:51.385Z,26.85
2022-08-27T08:05:44.178Z,27.58
2022-08-27T08:08:16.345Z,27.93
2022-08-27T08:10:59.061Z,27.73
2022-08-27T08:13:36.813Z,27.49
2022-08-27T08:16:06.785Z,27.34
2022-08-27T08:18:42.245Z,27.27
2022-08-27T08:21:14.065Z,27.22
2022-08-27T08:23:47.427Z,27.20
2022-08-27T08:26:24.822Z,27.20
2022-08-27T08:28:59.343Z,27.20
2022-08-27T08:31:31.103Z,27.20
2022-08-27T08:34:05.010Z,27.20
2022-08-27T08:36:39.328Z,27.19
2022-08-27T08:39:08.276Z,27.22
2022-08-27T08:41:48.884Z,27.25
2022-08-27T08:44:33.135Z,27.31
2022-08-27T08:47:04.624Z,27.39
2022-08-27T08:49:47.550Z,27.47
2022-08-27T08:52:31.300Z,27.55
2022-08-27T08:55:36.187Z,27.64
2022-08-27T08:58:30.571Z,27.74
2022-08-27T09:01:10.459Z,27.84
2022-08-27T09:03:42.282Z,27.93
2022-08-27T09:06:38.206Z,28.00
2022-08-27T09:09:38.529Z,28.08
2022-08-27T09:12:16.212Z,28.18
2022-08-27T09:14:59.254Z,28.27
2022-08-27T09:17:30.442Z,28.34
2022-08-27T09:19:59.487Z,28.36
2022-08-27T09:22:41.587Z,28.38
2022-08-27T09:25:21.124Z,28.42
2022-08-27T09:27:53.499Z,28.49
2022-08-27T09:30:30.314Z,28.57
2022-08-27T09:33:04.648Z,28.66
2022-08-27T09:35:42.436Z,28.76
2022-08-27T09:38:14.302Z,28.81
2022-08-27T09:40:48.805Z,28.86
2022-08-27T09:43:17.974Z,28.95
2022-08-27T09:45:49.590Z,29.05
2022-08-27T09:48:20.362Z,29.16
2022-08-27T09:50:54.415Z,29.28
2022-08-27T09:53:26.848Z,29.39
2022-08-27T09:56:04.558Z,29.50
2022-08-27T09:58:55.074Z,29.62
2022-08-27T10:01:27.453Z,29.75
2022-08-27T10:04:15.609Z,29.89
2022-08-27T10:06:50.436Z,30.03
2022-08-27T10:09:42.189Z,30.19
2022-08-27T10:12:20.110Z,30.36
2022-08-27T10:15:01.693Z,30.51
2022-08-27T10:17:42.576Z,30.67
2022-08-27T10:20:30.338Z,30.81
2022-08-27T10:23:09.481Z,30.97
2022-08-27T10:26:20.059Z,31.15
2022-08-27T10:28:56.002Z,31.36
2022-08-27T10:31:43.954Z,31.54
2022-08-27T10:34:44.785Z,31.74
2022-08-27T10:37:36.710Z,31.95
2022-08-27T10:40:34.755Z,32.16
2022-08-27T10:43:18.178Z,32.39
2022-08-27T10:45:53.130Z,32.61
2022-08-27T10:48:35.518Z,32.82
2022-08-27T10:51:20.178Z,33.02
2022-08-27T10:54:04.633Z,33.22
2022-08-27T10:56:43.458Z,33.43
2022-08-27T10:59:32.663Z,33.64
2022-08-27T11:02:36.390Z,33.88
2022-08-27T11:05:24.167Z,34.10
2022-08-27T11:08:06.628Z,34.29
2022-08-27T11:10:41.709Z,34.48
2022-08-27T11:13:25.697Z,34.64
2022-08-27T11:15:56.919Z,34.82
2022-08-27T11:18:38.015Z,34.94
2022-08-27T11:21:15.122Z,35.09
2022-08-27T11:23:54.269Z,35.24
2022-08-27T11:26:23.393Z,35.38
2022-08-27T11:29:00.407Z,35.50
2022-08-27T11:31:35.602Z,35.67
2022-08-27T11:34:21.188Z,35.83
2022-08-27T11:37:19.941Z,36.01
2022-08-27T11:40:08.140Z,36.19
2022-08-27T11:42:44.043Z,36.37
2022-08-27T11:45:29.946Z,36.55
2022-08-27T11:48:03.260Z,36.76
2022-08-27T11:50:32.667Z,36.95
2022-08-27T11:53:12.042Z,37.16
2022-08-27T11:55:41.095Z,37.36
2022-08-27T11:58:23.810Z,37.52
2022-08-27T12:00:53.928Z,37.72
2022-08-27T12:03:30.393Z,37.92
2022-08-27T12:05:59.288Z,38.12
2022-08-27T12:08:32.156Z,38.34
2022-08-27T12:11:31.070Z,38.57
2022-08-27T12:14:17.570Z,38.82
2022-08-27T12:16:58.345Z,39.07
2022-08-27T12:20:01.793Z,39.32
2022-08-27T12:23:08.313Z,39.60
2022-08-27T12:25:36.998Z,39.89
2022-08-27T12:28:09.529Z,40.11
2022-08-27T12:30:49.677Z,40.40
2022-08-27T12:33:32.444Z,40.80
2022-08-27T12:36:11.048Z,41.27
2022-08-27T12:38:50.474Z,41.69
2022-08-27T12:41:44.524Z,42.06
2022-08-27T12:44:23.817Z,42.39
2022-08-27T12:46:54.872Z,42.63
2022-08-27T12:49:38.626Z,42.85
2022-08-27T12:52:35.646Z,43.01
2022-08-27T12:55:41.708Z,43.11
2022-08-27T12:58:37.326Z,43.18
2022-08-27T13:01:18.095Z,43.20
2022-08-27T13:03:54.665Z,43.19
2022-08-27T13:06:33.805Z,43.20
2022-08-27T13:09:08.715Z,43.21
2022-08-27T13:11:49.399Z,43.26
2022-08-27T13:14:20.747Z,43.30
2022-08-27T13:16:57.928Z,43.34
2022-08-27T13:19:35.945Z,43.36
2022-08-27T13:22:07.384Z,43.36
2022-08-27T13:24:49.382Z,43.34
2022-08-27T13:27:30.795Z,43.30
2022-08-27T13:30:08.130Z,43.26
2022-08-27T13:32:38.294Z,43.23
2022-08-27T13:35:09.885Z,43.23
2022-08-27T13:37:50.863Z,43.23
2022-08-27T13:40:34.692Z,43.18
2022-08-27T13:43:13.470Z,43.13
2022-08-27T13:45:42.666Z,43.06
2022-08-27T13:48:13.157Z,42.99
2022-08-27T13:50:49.873Z,42.90
2022-08-27T13:53:43.240Z,42.77
2022-08-27T13:56:23.181Z,42.65
2022-08-27T13:58:52.117Z,42.55
2022-08-27T14:01:31.448Z,42.46
2022-08-27T14:04:06.592Z,42.34
2022-08-27T14:06:43.425Z,42.17
2022-08-27T14:09:22.347Z,42.02
2022-08-27T14:12:06.600Z,41.90
2022-08-27T14:14:41.395Z,41.75
2022-08-27T14:17:29.465Z,41.58
2022-08-27T14:20:04.404Z,41.40
2022-08-27T14:22:35.135Z,41.26
2022-08-27T14:25:06.540Z,41.12
2022-08-27T14:27:39.470Z,41.02
2022-08-27T14:30:16.907Z,40.95
2022-08-27T14:32:46.000Z,40.91
2022-08-27T14:35:14.852Z,40.85
2022-08-27T14:37:55.110Z,40.78
2022-08-27T14:40:24.414Z,40.69
2022-08-27T14:42:53.685Z,40.61
2022-08-27T14:45:23.516Z,40.53
2022-08-27T14:47:52.817Z,40.43
2022-08-27T14:50:22.172Z,40.32
2022-08-27T14:52:54.387Z,40.22
2022-08-27T14:55:23.894Z,40.15
2022-08-27T14:57:52.787Z,40.10
2022-08-27T15:00:37.396Z,40.06
2022-08-27T15:03:07.931Z,39.98
2022-08-27T15:05:37.582Z,39.89
2022-08-27T15:08:06.469Z,39.80
2022-08-27T15:10:40.612Z,39.72
2022-08-27T15:13:11.725Z,39.65
2022-08-27T15:15:41.483Z,39.59
2022-08-27T15:18:10.591Z,39.51
2022-08-27T15:20:40.856Z,39.44
2022-08-27T15:23:14.561Z,39.35
2022-08-27T15:25:45.909Z,39.24
2022-08-27T15:28:14.900Z,39.15
2022-08-27T15:30:44.052Z,39.05
2022-08-27T15:33:12.683Z,38.96
2022-08-27T15:35:41.443Z,38.89
2022-08-27T15:38:11.129Z,38.79
2022-08-27T15:40:40.252Z,38.69
2022-08-27T15:43:13.018Z,38.58
2022-08-27T15:45:41.763Z,38.46
2022-08-27T15:48:11.114Z,38.34
2022-08-27T15:50:41.286Z,38.21
2022-08-27T15:53:11.128Z,38.08
2022-08-27T15:55:42.713Z,37.96
2022-08-27T15:58:14.894Z,37.80
2022-08-27T16:00:46.765Z,37.66
2022-08-27T16:03:17.009Z,37.52
2022-08-27T16:05:46.470Z,37.42
2022-08-27T16:08:15.372Z,37.34
2022-08-27T16:10:44.467Z,37.24
2022-08-27T16:13:13.267Z,37.13
2022-08-27T16:15:42.440Z,37.01
2022-08-27T16:18:14.518Z,36.87
2022-08-27T16:20:43.641Z,36.72
2022-08-27T16:23:18.034Z,36.57
2022-08-27T16:25:47.472Z,36.43
2022-08-27T16:28:19.400Z,36.30
2022-08-27T16:30:50.268Z,36.18
2022-08-27T16:33:19.743Z,36.03
2022-08-27T16:35:48.803Z,35.89
2022-08-27T16:38:17.934Z,35.74
2022-08-27T16:40:53.481Z,35.56
2022-08-27T16:43:24.761Z,35.37
2022-08-27T16:45:55.703Z,35.14
2022-08-27T16:48:44.318Z,34.89
2022-08-27T16:51:30.002Z,34.61
2022-08-27T16:54:05.894Z,34.32
2022-08-27T16:56:38.112Z,34.03
2022-08-27T16:59:07.743Z,33.76
2022-08-27T17:01:41.652Z,33.46
2022-08-27T17:04:19.368Z,33.14
2022-08-27T17:06:56.829Z,32.76
2022-08-27T17:09:27.085Z,32.43
2022-08-27T17:11:58.190Z,32.12
2022-08-27T17:14:27.042Z,31.74
2022-08-27T17:16:55.675Z,31.37
2022-08-27T17:19:26.342Z,31.03
2022-08-27T17:21:55.160Z,30.71
2022-08-27T17:24:24.084Z,30.41
2022-08-27T17:26:55.213Z,30.13
2022-08-27T17:29:24.237Z,29.85
2022-08-27T17:31:56.186Z,29.59
2022-08-27T17:34:28.775Z,29.34
2022-08-27T17:37:04.818Z,29.11
2022-08-27T17:39:33.866Z,28.85
2022-08-27T17:42:05.774Z,28.62
2022-08-27T17:44:38.555Z,28.41
2022-08-27T17:47:09.065Z,28.21
2022-08-27T17:49:38.385Z,28.02
2022-08-27T17:52:13.955Z,27.82
2022-08-27T17:54:46.406Z,27.64
2022-08-27T17:57:18.405Z,27.47
2022-08-27T17:59:47.514Z,27.31
2022-08-27T18:02:30.614Z,27.16
2022-08-27T18:04:59.643Z,27.00
2022-08-27T18:07:28.851Z,26.85
2022-08-27T18:09:57.569Z,26.72
2022-08-27T18:12:30.146Z,26.57
2022-08-27T18:15:14.510Z,26.43
2022-08-27T18:17:43.799Z,26.30
2022-08-27T18:20:15.007Z,26.18
2022-08-27T18:22:48.682Z,26.06
2022-08-27T18:25:19.320Z,25.95
2022-08-27T18:27:53.425Z,25.96
2022-08-27T18:30:23.079Z,26.52
2022-08-27T18:32:52.874Z,27.05
2022-08-27T18:35:30.457Z,27.32
2022-08-27T18:37:59.923Z,27.00
2022-08-27T18:40:36.889Z,26.62
2022-08-27T18:43:05.985Z,26.30
2022-08-27T18:45:37.900Z,26.04
2022-08-27T18:48:18.830Z,25.82
2022-08-27T18:50:54.350Z,25.79
2022-08-27T18:53:26.843Z,26.33
2022-08-27T18:55:55.603Z,26.82
2022-08-27T18:58:25.135Z,27.15
2022-08-27T19:01:01.204Z,27.28
2022-08-27T19:03:33.613Z,26.88
2022-08-27T19:06:07.900Z,26.41
2022-08-27T19:08:40.958Z,26.04
2022-08-27T19:11:09.974Z,25.77
2022-08-27T19:13:39.265Z,25.66
2022-08-27T19:16:20.870Z,26.09
2022-08-27T19:18:49.743Z,26.60
2022-08-27T19:21:18.541Z,26.91
2022-08-27T19:23:48.439Z,27.06
2022-08-27T19:26:21.512Z,26.69
2022-08-27T19:28:50.121Z,26.22
2022-08-27T19:31:18.699Z,25.86
2022-08-27T19:33:50.281Z,25.69
2022-08-27T19:36:25.951Z,26.09
2022-08-27T19:38:56.738Z,26.55
2022-08-27T19:41:27.886Z,26.85
2022-08-27T19:43:57.096Z,27.07
2022-08-27T19:46:27.201Z,27.13
2022-08-27T19:48:56.038Z,26.70
2022-08-27T19:51:25.085Z,26.20
2022-08-27T19:53:56.948Z,25.80
2022-08-27T19:56:29.113Z,25.61
2022-08-27T19:59:03.477Z,25.99
2022-08-27T20:01:38.495Z,26.42
2022-08-27T20:04:07.709Z,26.69
2022-08-27T20:06:36.758Z,26.89
2022-08-27T20:09:08.109Z,27.03
2022-08-27T20:11:36.895Z,27.05
2022-08-27T20:14:05.465Z,26.58
2022-08-27T20:16:39.910Z,26.05
2022-08-27T20:19:09.203Z,25.63
2022-08-27T20:21:38.118Z,25.44
2022-08-27T20:24:07.084Z,25.84
2022-08-27T20:26:36.178Z,26.28
2022-08-27T20:29:04.679Z,26.56
2022-08-27T20:31:33.594Z,26.74
2022-08-27T20:34:02.119Z,26.89
2022-08-27T20:36:33.004Z,26.99
2022-08-27T20:39:01.626Z,27.02
2022-08-27T20:41:30.293Z,26.56
2022-08-27T20:44:05.990Z,25.99
2022-08-27T20:46:37.698Z,25.68
2022-08-27T20:49:09.822Z,25.96
2022-08-27T20:52:01.921Z,26.33
2022-08-27T20:54:36.350Z,26.58
2022-08-27T20:57:16.223Z,26.73
2022-08-27T21:00:18.079Z,26.84
2022-08-27T21:02:55.405Z,26.92
2022-08-27T21:05:27.027Z,26.98
2022-08-27T21:07:55.965Z,26.92
2022-08-27T21:10:36.133Z,26.40
2022-08-27T21:13:11.922Z,25.79
2022-08-27T21:15:50.310Z,25.44
2022-08-27T21:18:34.385Z,25.77
2022-08-27T21:21:20.286Z,26.12
2022-08-27T21:23:54.793Z,26.32
2022-08-27T21:26:31.352Z,26.45
2022-08-27T21:29:08.600Z,26.54
2022-08-27T21:31:53.156Z,26.60
2022-08-27T21:34:33.678Z,26.67
2022-08-27T21:37:05.193Z,26.73
2022-08-27T21:39:47.017Z,26.77
2022-08-27T21:42:19.274Z,26.81
2022-08-27T21:45:08.418Z,26.80
2022-08-27T21:47:39.973Z,26.83
2022-08-27T21:50:28.487Z,26.79
2022-08-27T21:53:07.615Z,26.19
2022-08-27T21:55:45.381Z,25.58
2022-08-27T21:58:16.696Z,25.27
2022-08-27T22:00:50.747Z,25.58
2022-08-27T22:03:22.899Z,25.90
2022-08-27T22:05:51.912Z,26.12
2022-08-27T22:08:22.449Z,26.25
2022-08-27T22:10:55.183Z,26.34
2022-08-27T22:13:27.589Z,26.40
2022-08-27T22:16:05.424Z,26.45
2022-08-27T22:18:45.390Z,26.50
2022-08-27T22:21:35.322Z,26.51
2022-08-27T22:24:09.238Z,26.53
2022-08-27T22:26:43.548Z,26.55
2022-08-27T22:29:28.308Z,26.56
2022-08-27T22:32:19.628Z,26.57
2022-08-27T22:34:56.331Z,26.45
2022-08-27T22:37:53.659Z,25.79
2022-08-27T22:40:33.108Z,25.12
2022-08-27T22:43:36.728Z,24.79
2022-08-27T22:46:15.899Z,25.14
2022-08-27T22:48:58.411Z,25.43
2022-08-27T22:51:37.574Z,25.63
2022-08-27T22:54:23.565Z,25.74
2022-08-27T22:57:00.445Z,25.82
2022-08-27T22:59:38.763Z,25.89
2022-08-27T23:02:19.339Z,25.94
2022-08-27T23:04:56.592Z,25.95
2022-08-27T23:07:37.781Z,26.01
2022-08-27T23:10:22.655Z,26.03
2022-08-27T23:13:09.578Z,26.04
2022-08-27T23:15:50.575Z,26.05
2022-08-27T23:18:40.809Z,26.06
2022-08-27T23:21:26.514Z,26.07
2022-08-27T23:24:29.607Z,25.93
2022-08-27T23:27:30.861Z,25.13
2022-08-27T23:30:08.890Z,24.52
2022-08-27T23:32:58.166Z,24.18
2022-08-27T23:35:39.040Z,24.50
2022-08-27T23:38:10.728Z,24.81
2022-08-27T23:40:45.568Z,25.00
2022-08-27T23:43:23.697Z,25.11
2022-08-27T23:46:23.069Z,25.22
2022-08-27T23:49:16.883Z,25.29
2022-08-27T23:51:52.225Z,25.34
2022-08-27T23:54:26.191Z,25.38
2022-08-27T23:57:02.595Z,25.43
2022-08-27T23:59:34.400Z,25.47
